GCC Virtual Airport Information Service

John F Kennedy International Airport

ICAO: KJFK Country: US
Latitude: 40.6398 Longitude: -73.7789
Latest Arrival : KAC117 (OKBK-KJFK) Latest Departure : KAC118 (KJFK-OKBK)


WX CaptureLIVE
Data provided by noaa.gov | Fetched at 13:16:51

METAR : KJFK 051251Z 30021G26KT 10SM FEW060 FEW180 M04/M17 A2992 RMK AO2 PK WND 30027/1232 SLP132 T10391167

TAF : KJFK 051125Z 0512/0618 31020G29KT P6SM FEW100 FM051800 30022G30KT P6SM SKC FM060000 29016G24KT P6SM SKC FM060600 29013G20KT P6SM SCT050 SCT120


Runway Data for KJFK
Data provided by openaviationdata.com

Runway ID Mag Var Hdg Length Elevation Surface ILS Freq ILS Id ILS Slope
04L -14 44° 11353 ft 13 ft Asphalt 110.9 IHIQ 3
04R -14 44° 8401 ft 13 ft Asphalt 109.5 IJFK 3
13L -14 134° 9992 ft 13 ft Asphalt 111.5 ITLK 3
13R -14 134° 14564 ft 13 ft Asphalt -- -- --
22L -14 224° 8401 ft 13 ft Asphalt 110.9 IIWY 3
22R -14 224° 11353 ft 13 ft Asphalt 109.5 IJOC 3
31L -14 314° 14564 ft 13 ft Asphalt 111.35 IMOH 3
31R -14 314° 9992 ft 13 ft Asphalt 111.5 IRTH 3

John F Kennedy International Airport, US
Use only for reference purposes



Not for navigational purposes.